This is the latest recevied weather packets stored in our database for station/object N6OL. If no packets are shown the sender has not sent any weather packets the latest 10 day(s).
| Time | Temp. | Humidity | Pressure | Rain* | Wind** | Luminosity | Snow |
|---|---|---|---|---|---|---|---|
| 1777927524 | 17.22° C | 63% | 1015.1 hPa | 0 mm | - | 211 W/m² | - |
| 1777926903 | 16.67° C | 64% | 1014.9 hPa | 0 mm | - | 297 W/m² | - |
| 1777925403 | 16.11° C | 68% | 1014.7 hPa | 0 mm | - | 178 W/m² | - |
| 1777924224 | 17.22° C | 63% | 1014.9 hPa | 0 mm | - | 334 W/m² | - |
| 1777923603 | 16.67° C | 65% | 1015.1 hPa | 0 mm | - | 339 W/m² | - |
| 1777923324 | 16.67° C | 65% | 1015 hPa | 0 mm | - | 339 W/m² | - |
| 1777922724 | 16.67° C | 65% | 1014.8 hPa | 0 mm | - | 336 W/m² | - |
| 1777921803 | 16.67° C | 66% | 1015 hPa | 0 mm | - | 306 W/m² | - |
| 1777920324 | 16.67° C | 67% | 1015.1 hPa | 0 mm | - | 360 W/m² | - |
| 1777919403 | 16.11° C | 69% | 1015.1 hPa | 0 mm | - | 272 W/m² | - |
| 1777918503 | 16.11° C | 70% | 1015 hPa | 0 mm | - | 130 W/m² | - |
| 1777918203 | 16.11° C | 70% | 1015.1 hPa | 0 mm | - | 142 W/m² | - |
| 1777916403 | 16.11° C | 71% | 1014.7 hPa | 0 mm | - | 171 W/m² | - |
| 1777916103 | 15.56° C | 72% | 1014.9 hPa | 0 mm | - | 185 W/m² | - |
| 1777913403 | 15.56° C | 74% | 1014.5 hPa | 0 mm | - | 199 W/m² | - |
| 1777913103 | 15.56° C | 74% | 1014.5 hPa | 0 mm | - | 185 W/m² | - |
| 1777911003 | 16.11° C | 72% | 1014.5 hPa | 0 mm | - | 211 W/m² | - |
| 1777909803 | 16.11° C | 72% | 1014.5 hPa | 0 mm | - | 390 W/m² | - |
| 1777906203 | 13.33° C | 87% | 1014.5 hPa | 0 mm | - | 241 W/m² | - |
| 1777905303 | 12.78° C | 88% | 1014.8 hPa | 0 mm | - | 151 W/m² | - |
| 1777904703 | 12.22° C | 88% | 1014.8 hPa | 0 mm | - | 113 W/m² | - |
| 1777904424 | 12.22° C | 88% | 1014.6 hPa | 0 mm | - | 105 W/m² | - |
| 1777904103 | 12.22° C | 88% | 1014.7 hPa | 0 mm | - | 33 W/m² | - |
| 1777902624 | 12.22° C | 87% | 1014.6 hPa | 0 mm | - | 32 W/m² | - |
| 1777901103 | 12.22° C | 87% | 1014.2 hPa | 0 mm | - | 7 W/m² | - |
* Rain latest hour (hover to see other rain measurements)
** Current wind speed in m/s (hover to see current wind gust speed)